createdAt,value
2022-10-05T04:31:00.581Z,97.97
2022-10-05T04:32:00.510Z,98.07
2022-10-05T04:33:00.470Z,98.18
2022-10-05T04:34:00.424Z,98.18
2022-10-05T04:35:00.403Z,98.18
2022-10-05T04:36:00.398Z,98.18
2022-10-05T04:37:00.428Z,98.18
2022-10-05T04:38:00.358Z,98.18
2022-10-05T04:39:00.408Z,98.07
2022-10-05T04:40:00.343Z,98.07
2022-10-05T04:41:00.317Z,97.97
2022-10-05T04:42:00.307Z,97.97
2022-10-05T04:43:00.289Z,97.97
2022-10-05T04:44:00.287Z,97.97
2022-10-05T04:45:00.269Z,97.97
2022-10-05T04:46:00.267Z,98.07
2022-10-05T04:47:00.339Z,98.07
2022-10-05T04:48:00.228Z,98.18
2022-10-05T04:49:00.226Z,98.18
2022-10-05T04:50:00.231Z,98.27
2022-10-05T04:51:00.176Z,98.27
2022-10-05T04:52:00.177Z,98.27
2022-10-05T04:53:00.178Z,98.27
2022-10-05T04:54:00.166Z,98.27
2022-10-05T04:55:00.158Z,98.18
2022-10-05T04:56:00.205Z,98.27
2022-10-05T04:57:00.108Z,98.27
2022-10-05T04:58:00.099Z,98.27
2022-10-05T04:59:00.095Z,98.38
2022-10-05T05:00:00.081Z,98.38
2022-10-05T05:01:00.112Z,98.38
2022-10-05T05:02:00.044Z,98.38
2022-10-05T05:03:00.025Z,98.38
2022-10-05T05:04:00.066Z,98.38
2022-10-05T05:05:00.009Z,98.38
2022-10-05T05:06:16.395Z,98.38
2022-10-05T05:07:00.987Z,98.48
2022-10-05T05:08:00.087Z,98.48
2022-10-05T05:08:59.959Z,98.48
2022-10-05T05:09:59.945Z,98.58
2022-10-05T05:10:59.928Z,98.58
2022-10-05T05:11:59.938Z,98.58
2022-10-05T05:12:59.909Z,98.58
2022-10-05T05:13:59.919Z,98.58
2022-10-05T05:14:59.904Z,98.58
2022-10-05T05:15:59.945Z,98.58
2022-10-05T05:16:59.891Z,98.58
2022-10-05T05:17:59.847Z,98.58
2022-10-05T05:18:59.824Z,98.58
2022-10-05T05:19:59.815Z,98.58
2022-10-05T05:20:59.784Z,98.58
2022-10-05T05:21:59.774Z,98.58
2022-10-05T05:22:59.767Z,98.58
2022-10-05T05:23:59.766Z,98.48
2022-10-05T05:24:59.733Z,98.48
2022-10-05T05:25:59.724Z,98.38
2022-10-05T05:26:59.715Z,98.38
2022-10-05T05:27:59.747Z,98.38
2022-10-05T05:28:59.769Z,98.33
2022-10-05T05:29:59.714Z,98.33
2022-10-05T05:30:59.722Z,98.23
2022-10-05T05:31:59.643Z,98.23
2022-10-05T05:32:59.631Z,98.13
2022-10-05T05:33:59.641Z,98.13
2022-10-05T05:34:59.604Z,98.13
2022-10-05T05:35:59.595Z,98.02
2022-10-05T05:36:59.573Z,97.92
2022-10-05T05:37:59.594Z,97.92
2022-10-05T05:38:59.608Z,97.82
2022-10-05T05:39:59.764Z,97.72
2022-10-05T05:40:59.522Z,97.62
2022-10-05T05:41:59.512Z,97.62
2022-10-05T05:42:59.505Z,97.52
2022-10-05T05:43:59.483Z,97.37
2022-10-05T05:44:59.581Z,97.27
2022-10-05T05:45:59.482Z,97.06
2022-10-05T05:47:04.019Z,96.96
2022-10-05T05:48:00.492Z,96.86
2022-10-05T05:48:59.441Z,96.76
2022-10-05T05:50:05.596Z,96.76
2022-10-05T05:51:00.492Z,96.76
2022-10-05T05:51:59.372Z,96.66
2022-10-05T05:52:59.373Z,96.66
2022-10-05T05:53:59.359Z,96.66
2022-10-05T05:54:59.351Z,96.66
2022-10-05T05:55:59.321Z,96.55
2022-10-05T05:56:59.411Z,96.55
2022-10-05T05:57:59.331Z,96.45
2022-10-05T05:58:59.291Z,96.35
2022-10-05T05:59:59.282Z,96.25
2022-10-05T06:00:59.261Z,96.10
2022-10-05T06:01:59.293Z,96.10
2022-10-05T06:02:59.353Z,96.20
2022-10-05T06:03:59.220Z,96.00
2022-10-05T06:04:59.221Z,95.90
2022-10-05T06:05:59.191Z,95.90
2022-10-05T06:06:59.180Z,96.00
2022-10-05T06:07:59.160Z,96.00
2022-10-05T06:08:59.190Z,95.90
2022-10-05T06:09:59.150Z,95.69
2022-10-05T06:10:59.130Z,95.59
2022-10-05T06:11:59.110Z,95.59
2022-10-05T06:13:01.729Z,95.39
2022-10-05T06:13:59.091Z,95.39
2022-10-05T06:14:59.089Z,95.29
2022-10-05T06:15:59.091Z,95.18
2022-10-05T06:16:59.057Z,95.14
2022-10-05T06:17:59.028Z,94.93
2022-10-05T06:18:59.033Z,94.84
2022-10-05T06:20:04.002Z,94.73
2022-10-05T06:21:00.002Z,94.73
2022-10-05T06:21:58.981Z,94.63
2022-10-05T06:22:58.969Z,94.63
2022-10-05T06:23:58.955Z,94.53
2022-10-05T06:24:58.971Z,94.43
2022-10-05T06:25:58.929Z,94.43
2022-10-05T06:26:58.919Z,94.28
2022-10-05T06:27:58.930Z,94.08
2022-10-05T06:28:58.887Z,94.18
2022-10-05T06:29:58.878Z,94.08
2022-10-05T06:30:58.882Z,94.18
2022-10-05T06:31:59.223Z,94.18
2022-10-05T06:32:58.837Z,94.18
2022-10-05T06:33:58.818Z,94.18
2022-10-05T06:34:58.819Z,94.08
2022-10-05T06:35:58.805Z,94.08
2022-10-05T06:36:58.789Z,93.98
2022-10-05T06:37:58.766Z,93.87
2022-10-05T06:38:58.757Z,93.77
2022-10-05T06:40:01.102Z,93.77
2022-10-05T06:40:58.748Z,93.77
2022-10-05T06:41:58.721Z,93.57
2022-10-05T06:42:58.715Z,93.47
2022-10-05T06:43:58.691Z,93.43
2022-10-05T06:44:58.699Z,93.43
2022-10-05T06:45:58.757Z,93.43
2022-10-05T06:46:58.661Z,93.43
2022-10-05T06:48:02.809Z,93.43
2022-10-05T06:48:59.637Z,93.22
2022-10-05T06:49:58.607Z,93.22
2022-10-05T06:50:58.616Z,93.22
2022-10-05T06:51:58.576Z,93.22
2022-10-05T06:52:58.567Z,93.12
2022-10-05T06:53:58.610Z,93.02
2022-10-05T06:54:58.545Z,93.12
2022-10-05T06:55:58.536Z,93.02
2022-10-05T06:56:58.542Z,93.02
2022-10-05T06:57:58.549Z,93.12
2022-10-05T06:58:58.555Z,93.02
2022-10-05T06:59:58.487Z,92.97
2022-10-05T07:00:58.517Z,92.87
2022-10-05T07:01:58.539Z,92.67
2022-10-05T07:02:58.445Z,92.67
2022-10-05T07:03:58.424Z,92.47
2022-10-05T07:04:58.415Z,92.47
2022-10-05T07:05:58.405Z,92.47
2022-10-05T07:06:58.385Z,92.26
2022-10-05T07:07:58.375Z,92.06
2022-10-05T07:08:58.355Z,92.16
2022-10-05T07:09:58.335Z,92.22
2022-10-05T07:10:58.385Z,93.64
2022-10-05T07:12:03.774Z,92.52
2022-10-05T07:12:59.305Z,91.10
2022-10-05T07:13:58.317Z,91.97
2022-10-05T07:14:58.305Z,91.26
2022-10-05T07:15:58.303Z,91.26
2022-10-05T07:16:58.290Z,90.96
2022-10-05T07:17:58.236Z,90.75
2022-10-05T07:18:58.227Z,90.55
2022-10-05T07:19:58.215Z,90.55
2022-10-05T07:20:58.194Z,90.55
2022-10-05T07:21:58.218Z,90.75
2022-10-05T07:22:58.174Z,90.86
2022-10-05T07:23:58.155Z,90.55
2022-10-05T07:24:58.149Z,90.35
2022-10-05T07:25:58.125Z,90.45
2022-10-05T07:26:58.125Z,90.25
2022-10-05T07:27:58.127Z,90.25
2022-10-05T07:28:58.095Z,90.05
2022-10-05T07:29:58.074Z,89.70
2022-10-05T07:30:58.084Z,89.70
2022-10-05T07:31:58.064Z,89.70
2022-10-05T07:32:58.035Z,89.39
2022-10-05T07:33:58.025Z,89.29
2022-10-05T07:34:58.004Z,89.29
2022-10-05T07:35:58.004Z,89.50
2022-10-05T07:36:58.559Z,89.59
2022-10-05T07:37:57.993Z,89.39
2022-10-05T07:38:57.954Z,89.29
2022-10-05T07:40:01.569Z,89.39
2022-10-05T07:40:57.928Z,89.09
2022-10-05T07:41:57.931Z,88.89
2022-10-05T07:42:57.905Z,88.89
2022-10-05T07:44:02.617Z,89.09
2022-10-05T07:44:58.874Z,88.48
2022-10-05T07:45:57.947Z,88.68
2022-10-05T07:46:57.865Z,88.38
2022-10-05T07:47:57.880Z,88.28
2022-10-05T07:48:57.839Z,88.18
2022-10-05T07:49:57.814Z,88.13
2022-10-05T07:50:57.811Z,88.03
2022-10-05T07:51:57.783Z,88.34
2022-10-05T07:52:57.763Z,87.73
2022-10-05T07:53:57.764Z,87.73
2022-10-05T07:54:57.755Z,87.73
2022-10-05T07:55:57.761Z,87.73
2022-10-05T07:56:57.712Z,87.32
2022-10-05T07:57:57.703Z,87.02
2022-10-05T07:58:57.691Z,86.71
2022-10-05T07:59:57.683Z,86.37
2022-10-05T08:00:57.732Z,86.16
2022-10-05T08:01:57.690Z,85.76
2022-10-05T08:02:57.704Z,85.76
2022-10-05T08:03:57.762Z,85.56
2022-10-05T08:04:57.613Z,85.15
2022-10-05T08:05:57.601Z,85.25
2022-10-05T08:06:57.600Z,85.05
2022-10-05T08:07:57.572Z,85.25
2022-10-05T08:08:57.561Z,85.11
2022-10-05T08:09:57.551Z,85.21
2022-10-05T08:10:57.533Z,84.81
2022-10-05T08:11:57.532Z,84.61
2022-10-05T08:12:57.502Z,85.11
2022-10-05T08:13:57.521Z,84.20
2022-10-05T08:14:57.490Z,83.69
2022-10-05T08:15:57.561Z,83.69
2022-10-05T08:16:57.471Z,83.59
2022-10-05T08:17:57.441Z,83.59
2022-10-05T08:18:57.421Z,83.55
2022-10-05T08:19:57.422Z,83.55
2022-10-05T08:20:57.401Z,83.45
2022-10-05T08:21:57.402Z,83.25
2022-10-05T08:22:57.371Z,82.95
2022-10-05T08:23:57.371Z,83.04
2022-10-05T08:24:57.550Z,83.04
2022-10-05T08:25:57.341Z,82.95
2022-10-05T08:26:57.432Z,83.04
2022-10-05T08:27:57.369Z,83.15
2022-10-05T08:28:57.292Z,83.15
2022-10-05T08:29:57.292Z,83.15
2022-10-05T08:30:57.398Z,83.35
2022-10-05T08:31:57.270Z,83.04
2022-10-05T08:32:57.260Z,83.04
2022-10-05T08:33:57.230Z,83.04
2022-10-05T08:34:57.220Z,83.15
2022-10-05T08:35:57.210Z,83.04
2022-10-05T08:36:57.202Z,83.15
2022-10-05T08:37:57.219Z,83.11
2022-10-05T08:38:57.162Z,83.11
2022-10-05T08:39:57.158Z,82.70
2022-10-05T08:40:57.149Z,82.70
2022-10-05T08:41:57.140Z,82.60
2022-10-05T08:42:57.110Z,82.40
2022-10-05T08:43:57.118Z,82.30
2022-10-05T08:44:57.090Z,82.40
2022-10-05T08:45:57.115Z,82.50
2022-10-05T08:46:57.078Z,82.30
2022-10-05T08:47:57.052Z,82.40
2022-10-05T08:48:57.037Z,82.67
2022-10-05T08:49:57.022Z,82.46
2022-10-05T08:50:57.006Z,82.16
2022-10-05T08:51:57.011Z,82.16
2022-10-05T08:52:56.979Z,81.76
2022-10-05T08:53:56.971Z,82.16
2022-10-05T08:54:57.009Z,81.76
2022-10-05T08:55:56.948Z,81.76
2022-10-05T08:56:56.941Z,81.96
2022-10-05T08:57:56.911Z,81.65
2022-10-05T08:58:56.899Z,81.65
2022-10-05T08:59:56.895Z,81.65
2022-10-05T09:00:56.870Z,81.55
2022-10-05T09:01:56.904Z,81.51
2022-10-05T09:02:56.912Z,81.31
2022-10-05T09:03:56.829Z,81.41
2022-10-05T09:04:56.819Z,81.41
2022-10-05T09:05:56.809Z,81.62
2022-10-05T09:06:56.810Z,81.41
2022-10-05T09:07:56.779Z,81.21
2022-10-05T09:08:56.760Z,80.80
2022-10-05T09:10:00.882Z,80.91
2022-10-05T09:10:57.739Z,81.21
2022-10-05T09:11:56.740Z,80.80
2022-10-05T09:12:56.710Z,80.40
2022-10-05T09:13:56.699Z,80.60
2022-10-05T09:15:20.880Z,80.46
2022-10-05T09:15:57.757Z,80.46
2022-10-05T09:16:56.668Z,80.46
2022-10-05T09:17:56.687Z,80.16
2022-10-05T09:18:56.630Z,79.86
2022-10-05T09:19:56.626Z,80.06
2022-10-05T09:20:56.598Z,79.96
2022-10-05T09:21:56.621Z,80.53
2022-10-05T09:22:56.569Z,79.92
2022-10-05T09:23:56.569Z,79.92
2022-10-05T09:24:56.549Z,80.32
2022-10-05T09:25:56.538Z,79.82
2022-10-05T09:26:56.529Z,80.02
2022-10-05T09:27:56.546Z,80.02
2022-10-05T09:28:56.599Z,80.12
2022-10-05T09:29:56.488Z,79.21
2022-10-05T09:30:56.512Z,79.52
2022-10-05T09:31:56.478Z,79.92
2022-10-05T09:32:56.439Z,80.02
2022-10-05T09:33:56.429Z,79.72
2022-10-05T09:34:56.429Z,79.32
2022-10-05T09:35:56.410Z,79.32
2022-10-05T09:36:56.406Z,79.41
2022-10-05T09:37:56.380Z,79.38
2022-10-05T09:38:56.359Z,79.08
2022-10-05T09:40:00.539Z,78.77
2022-10-05T09:40:57.330Z,78.57
2022-10-05T09:41:56.327Z,78.88
2022-10-05T09:42:56.320Z,78.97
2022-10-05T09:43:56.297Z,79.68
2022-10-05T09:44:56.291Z,79.28
2022-10-05T09:45:56.320Z,79.08
2022-10-05T09:46:56.259Z,78.57
2022-10-05T09:47:56.258Z,78.77
2022-10-05T09:48:56.230Z,78.97
2022-10-05T09:49:56.220Z,78.47
2022-10-05T09:50:56.198Z,78.37
2022-10-05T09:51:56.197Z,78.47
2022-10-05T09:52:56.188Z,78.33
2022-10-05T09:53:56.166Z,78.47
2022-10-05T09:54:56.153Z,78.47
2022-10-05T09:55:56.137Z,78.47
2022-10-05T09:56:56.139Z,78.23
2022-10-05T09:57:56.111Z,78.53
2022-10-05T09:58:56.099Z,78.33
2022-10-05T09:59:56.164Z,78.13
2022-10-05T10:01:08.827Z,77.73
2022-10-05T10:01:57.116Z,77.73
2022-10-05T10:02:56.141Z,77.49
2022-10-05T10:03:56.029Z,77.49
2022-10-05T10:04:56.020Z,76.98
2022-10-05T10:05:56.006Z,77.19
2022-10-05T10:06:56.017Z,77.73
2022-10-05T10:07:55.980Z,77.59
2022-10-05T10:08:55.969Z,77.49
2022-10-05T10:09:55.958Z,77.49
2022-10-05T10:10:55.947Z,76.78
2022-10-05T10:11:55.938Z,77.19
2022-10-05T10:12:55.918Z,77.19
2022-10-05T10:13:55.907Z,76.98
2022-10-05T10:15:00.537Z,76.88
2022-10-05T10:15:56.949Z,77.08
2022-10-05T10:16:55.889Z,77.08
2022-10-05T10:17:55.849Z,77.19
2022-10-05T10:18:55.837Z,77.59
2022-10-05T10:19:55.830Z,77.04
2022-10-05T10:20:55.808Z,76.84
2022-10-05T10:21:55.892Z,76.54
2022-10-05T10:22:55.798Z,76.54
2022-10-05T10:23:55.777Z,76.44
2022-10-05T10:24:55.759Z,76.54
2022-10-05T10:25:55.748Z,76.75
2022-10-05T10:26:55.750Z,76.54
2022-10-05T10:27:55.789Z,76.24
2022-10-05T10:28:55.704Z,76.14
2022-10-05T10:29:55.696Z,75.84
2022-10-05T10:30:55.686Z,75.43
2022-10-05T10:31:55.668Z,75.84
2022-10-05T10:32:55.657Z,75.54
2022-10-05T10:33:55.641Z,75.60
2022-10-05T10:34:55.617Z,75.20
2022-10-05T10:35:55.626Z,75.56
2022-10-05T10:36:55.618Z,75.06
2022-10-05T10:37:55.597Z,74.55
2022-10-05T10:38:55.569Z,74.86
2022-10-05T10:39:55.566Z,75.26
2022-10-05T10:40:55.540Z,74.99
2022-10-05T10:41:55.528Z,75.20
2022-10-05T10:42:55.535Z,74.90
2022-10-05T10:43:55.508Z,74.99
2022-10-05T10:44:55.532Z,74.86
2022-10-05T10:45:55.487Z,74.66
2022-10-05T10:46:55.515Z,74.49
2022-10-05T10:47:55.468Z,74.99
2022-10-05T10:48:55.438Z,74.55
2022-10-05T10:49:55.428Z,74.46
2022-10-05T10:50:55.414Z,74.55
2022-10-05T10:51:55.407Z,74.32
2022-10-05T10:52:55.399Z,73.92
2022-10-05T10:53:55.375Z,73.95
2022-10-05T10:54:55.347Z,74.55
2022-10-05T10:55:55.349Z,74.46
2022-10-05T10:56:55.338Z,73.95
2022-10-05T10:57:55.318Z,73.95
2022-10-05T10:58:55.309Z,74.05
2022-10-05T10:59:55.298Z,74.22
2022-10-05T11:00:55.276Z,73.72
2022-10-05T11:01:55.317Z,73.08
2022-10-05T11:02:55.291Z,72.74
2022-10-05T11:03:55.239Z,72.57
2022-10-05T11:04:55.219Z,73.38
2022-10-05T11:05:55.209Z,73.32
2022-10-05T11:06:55.196Z,73.32
2022-10-05T11:07:55.198Z,73.68
2022-10-05T11:08:55.168Z,73.38
2022-10-05T11:09:55.158Z,73.58
2022-10-05T11:10:55.140Z,73.48
2022-10-05T11:11:55.128Z,73.38
2022-10-05T11:12:55.130Z,73.04
2022-10-05T11:13:55.098Z,72.94
2022-10-05T11:14:55.089Z,72.34
2022-10-05T11:15:55.155Z,72.44
2022-10-05T11:16:55.060Z,72.14
2022-10-05T11:17:55.058Z,72.24
2022-10-05T11:18:55.037Z,72.30
2022-10-05T11:20:10.261Z,71.94
2022-10-05T11:20:56.007Z,73.65
2022-10-05T11:21:54.997Z,72.54
2022-10-05T11:22:55.000Z,72.64
2022-10-05T11:23:54.980Z,72.34
2022-10-05T11:24:54.957Z,72.54
2022-10-05T11:25:54.947Z,72.34
2022-10-05T11:26:54.930Z,72.34
2022-10-05T11:27:54.995Z,72.54
2022-10-05T11:28:54.910Z,72.03
2022-10-05T11:29:54.897Z,72.14
2022-10-05T11:30:54.957Z,72.24
2022-10-05T11:31:54.913Z,72.24
2022-10-05T11:32:54.891Z,72.30
2022-10-05T11:33:54.839Z,71.80
2022-10-05T11:34:54.818Z,71.70
2022-10-05T11:35:54.816Z,71.67
2022-10-05T11:36:54.799Z,70.76
2022-10-05T11:37:54.798Z,70.46
2022-10-05T11:38:54.769Z,70.46
2022-10-05T11:39:54.767Z,70.16
2022-10-05T11:40:54.758Z,69.72
2022-10-05T11:41:54.736Z,69.32
2022-10-05T11:42:54.727Z,69.62
2022-10-05T11:43:54.707Z,69.59
2022-10-05T11:44:54.698Z,69.29
2022-10-05T11:45:54.678Z,67.79
2022-10-05T11:46:54.742Z,65.28
2022-10-05T11:47:54.670Z,65.39
2022-10-05T11:48:54.640Z,66.05
2022-10-05T11:49:54.629Z,64.98
2022-10-05T11:50:54.614Z,65.25
2022-10-05T11:51:54.611Z,64.65
2022-10-05T11:52:54.599Z,63.59
2022-10-05T11:53:54.579Z,61.54
2022-10-05T11:55:11.638Z,61.83
2022-10-05T11:55:55.549Z,62.30
2022-10-05T11:56:54.889Z,60.92
2022-10-05T11:57:54.534Z,58.80
2022-10-05T11:58:54.534Z,59.25
2022-10-05T11:59:54.508Z,61.24
2022-10-05T12:00:54.479Z,60.80
2022-10-05T12:01:54.470Z,59.45
2022-10-05T12:02:54.544Z,60.08
2022-10-05T12:03:54.544Z,60.00
2022-10-05T12:04:54.437Z,59.45
2022-10-05T12:05:54.420Z,59.98
2022-10-05T12:06:54.410Z,59.25
2022-10-05T12:07:54.397Z,57.80
2022-10-05T12:08:54.390Z,58.37
2022-10-05T12:09:54.371Z,57.40
2022-10-05T12:10:54.368Z,59.81
2022-10-05T12:11:57.709Z,62.52
2022-10-05T12:12:54.340Z,61.24
2022-10-05T12:13:54.332Z,60.08
2022-10-05T12:14:54.301Z,58.92
2022-10-05T12:15:54.329Z,60.96
2022-10-05T12:16:54.273Z,60.17
2022-10-05T12:17:54.271Z,59.72
2022-10-05T12:18:54.262Z,57.64
2022-10-05T12:19:54.242Z,57.67
2022-10-05T12:20:54.276Z,57.37
2022-10-05T12:21:54.222Z,57.77
2022-10-05T12:22:54.204Z,56.98
2022-10-05T12:23:54.204Z,57.47
2022-10-05T12:24:54.181Z,59.38
2022-10-05T12:25:54.174Z,60.48
2022-10-05T12:26:54.156Z,58.03
2022-10-05T12:27:54.202Z,58.25
2022-10-05T12:28:54.133Z,58.55
2022-10-05T12:29:54.114Z,60.00
2022-10-05T12:30:54.095Z,59.78
2022-10-05T12:31:54.092Z,59.28
2022-10-05T12:32:55.859Z,60.03
2022-10-05T12:33:55.074Z,62.26
2022-10-05T12:35:01.047Z,60.65
2022-10-05T12:35:55.035Z,58.33
2022-10-05T12:37:09.012Z,57.67
2022-10-05T12:37:55.015Z,56.92
2022-10-05T12:38:54.037Z,55.38
2022-10-05T12:39:53.994Z,55.57
2022-10-05T12:40:54.033Z,55.63
2022-10-05T12:41:53.973Z,56.27
2022-10-05T12:42:53.947Z,57.40
2022-10-05T12:43:53.945Z,56.77
2022-10-05T12:44:53.916Z,56.15
2022-10-05T12:45:54.063Z,56.32
2022-10-05T12:46:53.897Z,56.77
2022-10-05T12:47:54.110Z,56.42
2022-10-05T12:48:53.897Z,55.18
2022-10-05T12:49:53.865Z,55.23
2022-10-05T12:50:53.846Z,55.73
2022-10-05T12:51:53.838Z,55.60
2022-10-05T12:52:53.818Z,54.88
2022-10-05T12:53:53.827Z,53.83
2022-10-05T12:54:53.830Z,53.11
2022-10-05T12:55:53.788Z,53.14
2022-10-05T12:56:53.767Z,53.44
2022-10-05T12:57:53.807Z,54.25
2022-10-05T12:58:53.759Z,54.25
2022-10-05T12:59:53.741Z,54.97
2022-10-05T13:00:53.767Z,54.78
2022-10-05T13:01:53.741Z,54.25
2022-10-05T13:02:53.697Z,53.98
2022-10-05T13:03:53.708Z,54.63
2022-10-05T13:04:53.672Z,55.13
2022-10-05T13:05:53.659Z,54.83
2022-10-05T13:06:53.639Z,54.38
2022-10-05T13:07:53.630Z,54.08
2022-10-05T13:08:53.619Z,54.08
2022-10-05T13:09:53.630Z,53.26
2022-10-05T13:10:53.598Z,53.66
2022-10-05T13:11:53.590Z,53.28
2022-10-05T13:12:53.571Z,53.51
2022-10-05T13:13:53.579Z,54.66
2022-10-05T13:14:53.553Z,55.05
2022-10-05T13:15:53.648Z,54.13
2022-10-05T13:16:55.103Z,53.81
2022-10-05T13:17:53.511Z,54.03
2022-10-05T13:18:53.512Z,54.33
2022-10-05T13:19:53.502Z,53.58
2022-10-05T13:20:53.473Z,52.54
2022-10-05T13:21:53.463Z,52.67
2022-10-05T13:22:53.454Z,53.39
2022-10-05T13:23:57.264Z,52.79
2022-10-05T13:24:53.427Z,53.09
2022-10-05T13:25:53.425Z,51.87
2022-10-05T13:26:53.402Z,53.02
2022-10-05T13:27:53.481Z,52.69
2022-10-05T13:28:53.395Z,53.44
2022-10-05T13:29:54.412Z,55.01
2022-10-05T13:30:53.354Z,56.98
2022-10-05T13:31:53.385Z,58.24
2022-10-05T13:32:53.334Z,60.62
2022-10-05T13:33:53.336Z,61.92
2022-10-05T13:34:53.316Z,61.49
2022-10-05T13:35:53.286Z,60.69
2022-10-05T13:36:53.282Z,60.69
2022-10-05T13:37:53.266Z,61.95
2022-10-05T13:38:53.255Z,62.25
2022-10-05T13:39:53.245Z,61.85
2022-10-05T13:40:53.235Z,62.02
2022-10-05T13:41:53.215Z,60.99
2022-10-05T13:42:53.206Z,60.99
2022-10-05T13:43:53.186Z,60.66
2022-10-05T13:44:53.197Z,61.32
2022-10-05T13:45:55.834Z,61.19
2022-10-05T13:46:53.156Z,61.19
2022-10-05T13:47:53.136Z,60.89
2022-10-05T13:48:53.127Z,61.22
2022-10-05T13:49:53.137Z,61.42
2022-10-05T13:50:53.106Z,61.92
2022-10-05T13:51:53.075Z,61.98
2022-10-05T13:52:53.076Z,62.65
2022-10-05T13:53:53.060Z,62.45
2022-10-05T13:54:53.066Z,61.82
2022-10-05T13:55:53.035Z,61.09
2022-10-05T13:56:53.027Z,60.99
2022-10-05T13:57:53.014Z,60.89
2022-10-05T13:58:53.017Z,60.86
2022-10-05T13:59:52.997Z,60.57
2022-10-05T14:00:52.967Z,61.57
2022-10-05T14:01:52.999Z,60.99
2022-10-05T14:02:53.029Z,61.16
2022-10-05T14:03:52.987Z,61.16
2022-10-05T14:04:52.917Z,61.07
2022-10-05T14:05:55.742Z,60.53
2022-10-05T14:06:52.898Z,61.07
2022-10-05T14:07:52.878Z,61.29
2022-10-05T14:08:52.867Z,62.09
2022-10-05T14:09:52.857Z,61.79
2022-10-05T14:10:52.837Z,61.99
2022-10-05T14:11:52.828Z,61.82
2022-10-05T14:12:52.808Z,62.32
2022-10-05T14:13:52.807Z,62.09
2022-10-05T14:14:52.798Z,61.62
2022-10-05T14:15:52.778Z,62.15
2022-10-05T14:16:52.860Z,62.65
2022-10-05T14:17:52.766Z,62.75
2022-10-05T14:18:52.743Z,62.45
2022-10-05T14:19:52.728Z,62.02
2022-10-05T14:20:52.699Z,62.12
2022-10-05T14:21:52.697Z,62.45
2022-10-05T14:22:52.687Z,63.25
2022-10-05T14:23:52.669Z,62.65
2022-10-05T14:24:52.669Z,62.65
2022-10-05T14:25:52.639Z,63.15
2022-10-05T14:26:52.626Z,63.06
2022-10-05T14:27:52.618Z,62.82
2022-10-05T14:28:52.598Z,62.49
2022-10-05T14:29:52.589Z,62.16
2022-10-05T14:30:56.796Z,60.93
2022-10-05T14:31:53.586Z,60.93
2022-10-05T14:32:52.553Z,60.53
2022-10-05T14:33:52.549Z,61.04
2022-10-05T14:34:52.518Z,60.03
2022-10-05T14:35:52.517Z,60.27
2022-10-05T14:36:52.527Z,60.86
2022-10-05T14:37:52.532Z,61.29
2022-10-05T14:38:52.475Z,61.19
2022-10-05T14:39:52.472Z,61.09
2022-10-05T14:40:52.439Z,60.36
2022-10-05T14:41:52.449Z,60.79
2022-10-05T14:42:52.419Z,61.52
2022-10-05T14:43:52.411Z,61.82
2022-10-05T14:44:52.399Z,62.22
2022-10-05T14:45:52.406Z,62.52
2022-10-05T14:46:52.373Z,63.29
2022-10-05T14:47:52.359Z,61.79
2022-10-05T14:48:52.347Z,61.46
2022-10-05T14:49:52.371Z,60.57
2022-10-05T14:50:52.318Z,60.24
2022-10-05T14:51:52.299Z,60.96
2022-10-05T14:52:52.347Z,61.26
2022-10-05T14:53:52.278Z,61.57
2022-10-05T14:54:52.257Z,61.69
2022-10-05T14:55:52.272Z,61.40
2022-10-05T14:56:52.229Z,61.19
2022-10-05T14:57:52.219Z,60.77
2022-10-05T14:58:52.217Z,60.46
2022-10-05T14:59:52.197Z,60.96
2022-10-05T15:00:52.206Z,61.16
2022-10-05T15:01:52.214Z,60.99
2022-10-05T15:02:52.149Z,60.89
2022-10-05T15:03:52.149Z,60.99
2022-10-05T15:04:52.130Z,60.66
2022-10-05T15:05:52.141Z,61.16
2022-10-05T15:06:55.286Z,61.29
2022-10-05T15:07:52.093Z,61.40
2022-10-05T15:08:52.070Z,60.86
2022-10-05T15:09:52.068Z,60.77
2022-10-05T15:10:52.064Z,60.27
2022-10-05T15:11:52.040Z,60.66
2022-10-05T15:12:52.019Z,60.44
2022-10-05T15:13:52.011Z,59.94
2022-10-05T15:14:51.991Z,59.44
2022-10-05T15:15:52.010Z,59.53
2022-10-05T15:16:52.054Z,60.06
2022-10-05T15:17:51.967Z,60.16
2022-10-05T15:18:51.940Z,59.97
2022-10-05T15:19:51.941Z,59.44
2022-10-05T15:20:51.931Z,58.71
2022-10-05T15:21:51.900Z,58.38
2022-10-05T15:22:51.890Z,57.86
2022-10-05T15:23:51.893Z,57.03
2022-10-05T15:24:51.870Z,56.51
2022-10-05T15:25:51.871Z,55.78
2022-10-05T15:26:51.840Z,54.96
2022-10-05T15:27:51.831Z,54.46
2022-10-05T15:28:51.811Z,54.86
2022-10-05T15:29:52.524Z,54.53
2022-10-05T15:30:51.883Z,54.21
2022-10-05T15:31:51.787Z,53.96
2022-10-05T15:32:51.762Z,52.84
2022-10-05T15:33:51.762Z,52.44
2022-10-05T15:34:51.732Z,53.16
2022-10-05T15:35:51.733Z,53.39
2022-10-05T15:36:51.722Z,53.46
2022-10-05T15:37:51.703Z,52.96
2022-10-05T15:38:51.683Z,52.76
2022-10-05T15:39:51.676Z,53.19
2022-10-05T15:40:51.663Z,53.16
2022-10-05T15:41:51.663Z,52.96
2022-10-05T15:42:51.634Z,53.04
2022-10-05T15:43:51.627Z,52.61
2022-10-05T15:44:51.604Z,53.06
2022-10-05T15:45:53.950Z,53.81
2022-10-05T15:46:51.596Z,55.05
2022-10-05T15:47:51.576Z,55.68
2022-10-05T15:48:51.588Z,55.55
2022-10-05T15:49:51.545Z,55.58
2022-10-05T15:50:51.534Z,55.95
2022-10-05T15:51:51.586Z,55.80
2022-10-05T15:52:51.506Z,55.55
2022-10-05T15:53:51.495Z,56.18
2022-10-05T15:54:51.483Z,55.95
2022-10-05T15:55:51.475Z,57.13
2022-10-05T15:56:51.456Z,58.58
2022-10-05T15:57:51.444Z,60.27
2022-10-05T15:58:51.425Z,61.19
2022-10-05T15:59:51.415Z,62.22
2022-10-05T16:00:51.426Z,62.22
2022-10-05T16:01:51.406Z,62.85
2022-10-05T16:02:51.440Z,63.45
2022-10-05T16:03:51.365Z,63.45
2022-10-05T16:04:51.363Z,62.72
2022-10-05T16:05:51.337Z,62.29
2022-10-05T16:06:51.336Z,63.56
2022-10-05T16:07:51.315Z,63.95
2022-10-05T16:08:51.321Z,63.85
2022-10-05T16:09:51.287Z,64.28
2022-10-05T16:10:51.274Z,64.78
2022-10-05T16:11:51.277Z,64.81
2022-10-05T16:12:51.236Z,65.12
2022-10-05T16:13:51.238Z,65.42
2022-10-05T16:14:51.241Z,65.82
2022-10-05T16:15:51.218Z,66.25
2022-10-05T16:16:51.230Z,66.55
2022-10-05T16:17:51.185Z,66.45
2022-10-05T16:18:51.166Z,66.55
2022-10-05T16:19:51.165Z,66.85
2022-10-05T16:20:51.144Z,66.95
2022-10-05T16:21:51.147Z,67.05
2022-10-05T16:22:51.115Z,67.29
2022-10-05T16:23:51.105Z,67.29
2022-10-05T16:24:51.086Z,67.29
2022-10-05T16:25:51.076Z,67.49
2022-10-05T16:26:51.067Z,67.69
2022-10-05T16:27:51.047Z,67.58
2022-10-05T16:28:51.074Z,67.79
2022-10-05T16:29:51.027Z,67.99
2022-10-05T16:30:51.053Z,68.42
2022-10-05T16:31:51.006Z,68.62
2022-10-05T16:32:50.987Z,69.02
2022-10-05T16:33:50.987Z,69.12
2022-10-05T16:34:50.958Z,69.46
2022-10-05T16:35:50.937Z,69.85
2022-10-05T16:36:50.958Z,69.35
2022-10-05T16:37:50.917Z,69.46
2022-10-05T16:38:50.938Z,69.76
2022-10-05T16:39:50.889Z,69.85
2022-10-05T16:40:50.924Z,69.85
2022-10-05T16:41:50.877Z,69.96
2022-10-05T16:42:50.881Z,69.96
2022-10-05T16:43:50.835Z,69.96
2022-10-05T16:44:50.830Z,69.96
2022-10-05T16:45:50.843Z,70.06
2022-10-05T16:46:50.903Z,70.16
2022-10-05T16:47:50.786Z,70.50
2022-10-05T16:48:50.778Z,70.59
2022-10-05T16:49:50.757Z,70.59
2022-10-05T16:50:50.747Z,70.79
2022-10-05T16:51:50.747Z,71.00
2022-10-05T16:52:50.729Z,71.09
2022-10-05T16:53:50.708Z,71.09
2022-10-05T16:54:50.697Z,71.20
2022-10-05T16:55:50.678Z,71.09
2022-10-05T16:56:50.678Z,71.20
2022-10-05T16:57:50.647Z,71.30
2022-10-05T16:58:50.645Z,71.40
2022-10-05T16:59:50.637Z,71.60
2022-10-05T17:00:50.618Z,71.50
2022-10-05T17:01:50.643Z,71.60
2022-10-05T17:02:50.609Z,71.50
2022-10-05T17:03:50.567Z,71.60
2022-10-05T17:04:50.566Z,71.80
2022-10-05T17:05:50.547Z,71.94
2022-10-05T17:06:50.538Z,72.03
2022-10-05T17:07:50.527Z,72.13
2022-10-05T17:08:50.508Z,72.24
2022-10-05T17:09:50.497Z,72.33
2022-10-05T17:10:50.486Z,72.64
2022-10-05T17:11:50.467Z,72.74
2022-10-05T17:12:50.485Z,72.84
2022-10-05T17:13:50.442Z,72.94
2022-10-05T17:14:50.427Z,72.74
2022-10-05T17:15:50.470Z,72.64
2022-10-05T17:16:50.408Z,72.53
2022-10-05T17:17:50.406Z,72.64
2022-10-05T17:18:50.377Z,72.44
2022-10-05T17:19:50.359Z,72.03
2022-10-05T17:20:50.349Z,71.50
2022-10-05T17:21:50.339Z,71.40
2022-10-05T17:22:50.338Z,71.09